SBOSBO GNB / LFLS
Speedbird OnlineSpeedbird Online GNB / LFLS

Grenoble-Isère Airport
02:22 -1.2°C

Location Grenoble, France
Latitude: 45.36289978027344
Longitude: 5.329370021820068
Web Wikipedia
Altitude 397 Meter / 1302 Feet
Distance 784 KM / 487 Miles
from London.
Time Zone UTC +1 hours (Europe/Paris)
Codes IATA: GNB
ICAO: LFLS
Currency £1 equals EUR 1.14
Runways
RunwayLength (m)Surface
093050Asphalt
273050Asphalt
Radio
TypeDescriptionFrequency
APPGRENOBLE APP119.3
ATISGRENOBLE ATIS133.85
GNDGRENOBLE GND121.925
TWRGRENOBLE TWR119.3
Live ATC
METAR LFLS 270100Z AUTO 34012KT 9999 OVC011 M01/M03 Q1016
TAF TAF AMD LFLS 261810Z 2618/2715 35010KT 9999 OVC012 TEMPO 2618/2709 OVC008 PROB30 TEMPO 2622/2706 4000 -SN OVC004 BECMG 2709/2711 BKN018
Weather As Of 27 Jan 2023 02:22
Description Overcast clouds
Wind 22 km/h from North (340°)
Cloud Cover 100%
Precipitation Rain: none, Snow: none
Sunrise 08:05
Sunset 17:37
Rotations During the last 90 days there were
31 flights from LGW
7 flights from LHR
29 flights to LGW
7 flights to LHR



Support Speedbird Online

© 2017-2023 Speedbird Online